Time;durP1;ratioP1;P1;durP2;ratioP2;P2;SDS_P1;SDS_P2;PMS_P1;PMS_P2;Temp;Humidity;BMP_temperature;BMP_pressure;BME280_temperature;BME280_humidity;BME280_pressure;Samples;Min_cycle;Max_cycle;Signal;HPM_P1;HPM_P2
2022/01/19 00:00:26;;;;;;;4.30;1.83;;;;;;;-4.75;66.81;99369.59;5016111;28;20041;-78
2022/01/19 00:02:51;;;;;;;5.75;2.10;;;;;;;-4.70;66.69;99359.69;5014427;28;20140;-78
2022/01/19 00:05:17;;;;;;;4.00;1.85;;;;;;;-4.63;67.13;99360.09;4998230;28;20041;-79
2022/01/19 00:07:43;;;;;;;3.83;1.70;;;;;;;-4.66;66.26;99359.06;5014631;28;20034;-78
2022/01/19 00:10:11;;;;;;;3.40;2.03;;;;;;;-4.79;66.34;99365.16;4998213;28;20437;-78
2022/01/19 00:12:37;;;;;;;4.70;2.20;;;;;;;-4.94;66.05;99364.38;5014659;28;20034;-78
2022/01/19 00:15:03;;;;;;;3.00;2.20;;;;;;;-5.23;65.87;99356.09;5031028;28;20034;-78
2022/01/19 00:17:28;;;;;;;3.97;1.85;;;;;;;-5.02;66.68;99365.63;5015099;28;20509;-78
2022/01/19 00:19:54;;;;;;;2.85;1.90;;;;;;;-4.95;67.35;99357.53;5030709;28;20034;-78
2022/01/19 00:22:20;;;;;;;4.63;2.00;;;;;;;-4.96;67.39;99358.34;4998099;28;20073;-78
2022/01/19 00:24:45;;;;;;;4.07;2.10;;;;;;;-4.87;66.69;99371.47;5014317;28;20077;-78
2022/01/19 00:27:11;;;;;;;4.35;2.10;;;;;;;-5.08;66.01;99365.31;5014271;28;20037;-78
2022/01/19 00:29:37;;;;;;;5.72;2.33;;;;;;;-5.13;66.74;99376.06;5015318;28;20535;-78
2022/01/19 00:32:04;;;;;;;3.05;2.05;;;;;;;-5.31;66.36;99382.66;4981951;28;20037;-78
2022/01/19 00:34:30;;;;;;;5.85;2.13;;;;;;;-5.36;66.59;99371.38;5014207;28;20034;-77
2022/01/19 00:36:56;;;;;;;13.63;1.52;;;;;;;-5.05;67.43;99383.16;5014976;28;20038;-78
2022/01/19 00:39:24;;;;;;;3.00;1.65;;;;;;;-4.79;66.97;99384.53;5014308;28;20504;-78
2022/01/19 00:41:50;;;;;;;2.85;2.20;;;;;;;-4.70;66.55;99388.41;4998061;28;20409;-78
2022/01/19 00:44:16;;;;;;;5.55;2.00;;;;;;;-4.86;65.28;99383.31;4981668;28;20034;-78
2022/01/19 00:46:41;;;;;;;2.78;1.40;;;;;;;-5.06;65.27;99374.69;5030494;28;20111;-78
2022/01/19 00:49:07;;;;;;;3.33;1.80;;;;;;;-4.97;65.13;99369.25;5013987;28;20042;-78
2022/01/19 00:51:33;;;;;;;3.70;2.13;;;;;;;-4.97;65.53;99370.13;4979336;28;20033;-78
2022/01/19 00:54:00;;;;;;;4.75;2.05;;;;;;;-4.80;66.36;99373.53;5025164;28;20061;-78
2022/01/19 00:56:27;;;;;;;4.88;2.35;;;;;;;-4.74;65.18;99378.91;4997673;28;20042;-78
2022/01/19 00:58:53;;;;;;;5.35;2.08;;;;;;;-4.90;64.30;99387.38;4997682;28;20482;-78
2022/01/19 01:01:19;;;;;;;3.20;2.00;;;;;;;-5.11;65.19;99376.97;5013660;28;20076;-79
2022/01/19 01:03:44;;;;;;;4.82;2.30;;;;;;;-5.26;65.61;99382.91;4997266;28;20077;-78
2022/01/19 01:06:10;;;;;;;3.92;1.95;;;;;;;-5.32;66.30;99370.78;5013452;28;20038;-78
2022/01/19 01:08:36;;;;;;;5.53;2.17;;;;;;;-5.45;66.41;99383.53;5013594;28;20034;-79
2022/01/19 01:11:02;;;;;;;6.80;3.55;;;;;;;-5.50;66.19;99387.47;5013498;28;20185;-78
2022/01/19 01:16:05;;;;;;;5.18;2.30;;;;;;;-5.67;67.95;99389.09;5013411;28;20045;-78
2022/01/19 01:18:32;;;;;;;2.88;1.92;;;;;;;-5.79;68.12;99379.16;5013210;28;20187;-77
2022/01/19 01:21:00;;;;;;;4.30;2.58;;;;;;;-5.80;68.39;99385.00;4981396;28;20036;-77
2022/01/19 01:23:28;;;;;;;;;;;;;;;-5.86;67.89;99384.69;5013640;28;20038;-78
2022/01/19 01:25:55;;;;;;;5.97;1.90;;;;;;;-5.54;68.47;99385.56;5014196;28;19913;-77
2022/01/19 01:28:21;;;;;;;3.83;2.10;;;;;;;-5.59;68.16;99374.34;4996619;28;20092;-77
2022/01/19 01:30:47;;;;;;;3.58;2.28;;;;;;;-5.76;67.64;99370.91;4996761;28;20045;-79
2022/01/19 01:33:13;;;;;;;5.60;2.30;;;;;;;-5.80;68.17;99359.75;5013014;28;20068;-78
2022/01/19 01:35:38;;;;;;;5.07;2.20;;;;;;;-5.87;68.26;99365.22;5029401;28;20088;-78
2022/01/19 01:38:05;;;;;;;4.05;2.20;;;;;;;-5.89;68.37;99374.38;5029430;28;20046;-77
2022/01/19 01:40:33;;;;;;;5.50;2.20;;;;;;;-5.94;68.30;99375.81;4995654;28;20041;-77
2022/01/19 01:43:00;;;;;;;4.05;2.10;;;;;;;-5.66;68.92;99373.13;5013037;28;20046;-77
2022/01/19 01:45:29;;;;;;;5.03;2.10;;;;;;;-5.43;68.06;99392.09;5028910;28;20030;-77
2022/01/19 01:48:06;;;;;;;4.13;2.22;;;;;;;-5.57;67.08;99382.88;4996903;28;20038;-77
2022/01/19 01:53:26;;;;;;;4.78;1.95;;;;;;;-5.36;67.16;99384.03;4998882;28;20048;-77
2022/01/19 01:55:59;;;;;;;3.05;1.52;;;;;;;-5.31;66.79;99385.19;5012579;28;20128;-77
2022/01/19 01:58:30;;;;;;;1.90;1.27;;;;;;;-5.35;66.38;99392.50;5013291;28;20476;-77
2022/01/19 02:01:14;;;;;;;3.15;1.77;;;;;;;-5.34;67.07;99395.13;5013364;28;20056;-77
2022/01/19 02:03:42;;;;;;;2.83;1.70;;;;;;;-5.26;66.46;99410.72;4996310;28;20560;-76
2022/01/19 02:15:47;;;;;;;2.30;1.50;;;;;;;-5.03;65.69;99415.34;5012829;28;20052;-78
2022/01/19 02:23:03;;;;;;;5.13;1.90;;;;;;;-5.55;66.02;99401.50;5017458;28;20117;-77
2022/01/19 02:25:35;;;;;;;3.90;1.80;;;;;;;-5.43;66.35;99412.31;5012495;28;20132;-77
2022/01/19 02:41:38;;;;;;;2.58;1.80;;;;;;;-6.06;66.80;99408.81;4998113;28;20061;-78
2022/01/19 02:44:04;;;;;;;2.92;1.70;;;;;;;-5.94;67.27;99408.66;4979984;28;20040;-78
2022/01/19 02:49:20;;;;;;;5.47;2.63;;;;;;;-6.15;67.35;99408.28;5029534;28;19986;-78
2022/01/19 02:51:47;;;;;;;4.97;2.58;;;;;;;-6.33;68.02;99424.91;4996031;28;20607;-78
2022/01/19 02:54:19;;;;;;;3.88;2.40;;;;;;;-6.32;68.50;99422.47;5011692;28;20398;-77
2022/01/19 02:56:50;;;;;;;13.68;5.57;;;;;;;-6.18;67.85;99421.63;5011731;28;20476;-77
2022/01/19 03:09:45;;;;;;;3.20;2.00;;;;;;;-5.99;67.00;99448.81;5008077;28;20466;-76
2022/01/19 03:12:11;;;;;;;3.85;2.15;;;;;;;-5.98;68.02;99442.09;5008498;28;20042;-77
2022/01/19 03:14:37;;;;;;;5.22;3.20;;;;;;;-6.07;67.49;99441.56;5010483;28;20409;-77
2022/01/19 03:17:03;;;;;;;;;;;;;;;-6.21;67.69;99436.59;5041411;28;20374;-77
2022/01/19 03:19:31;;;;;;;3.90;2.30;;;;;;;-6.23;68.97;99427.16;5027355;28;19928;-77
2022/01/19 03:21:57;;;;;;;9.07;4.15;;;;;;;-6.29;69.06;99431.88;5012567;28;20042;-78
2022/01/19 03:24:23;;;;;;;5.45;3.10;;;;;;;-6.31;68.76;99421.69;5027651;28;20552;-77
2022/01/19 03:26:48;;;;;;;5.97;2.95;;;;;;;-6.41;68.85;99427.84;4994967;28;20042;-77
2022/01/19 03:29:23;;;;;;;7.18;3.10;;;;;;;-6.44;69.08;99426.81;5044570;28;20551;-79
2022/01/19 03:31:49;;;;;;;5.35;2.78;;;;;;;-6.40;68.71;99428.72;5025503;28;20046;-76
2022/01/19 03:34:16;;;;;;;4.75;2.78;;;;;;;-6.39;69.63;99422.88;5044568;28;20042;-77
2022/01/19 03:36:47;;;;;;;4.57;2.80;;;;;;;-6.25;69.08;99418.66;5028980;28;20046;-78
2022/01/19 03:39:14;;;;;;;5.28;2.63;;;;;;;-6.13;68.50;99428.59;5027888;28;20050;-78
2022/01/19 03:41:39;;;;;;;3.95;2.08;;;;;;;-5.77;68.43;99420.56;5027764;28;20084;-78
2022/01/19 03:44:05;;;;;;;4.35;2.28;;;;;;;-5.57;67.51;99413.22;5027705;28;20038;-78
2022/01/19 03:46:42;;;;;;;5.82;2.72;;;;;;;-5.71;65.55;99422.56;5010870;28;20068;-77
2022/01/19 03:49:11;;;;;;;8.75;2.38;;;;;;;-5.85;65.54;99418.38;5016114;28;20042;-78
2022/01/19 03:51:37;;;;;;;4.68;2.50;;;;;;;-5.86;65.65;99427.63;5024556;28;20555;-78
2022/01/19 03:54:03;;;;;;;5.30;2.67;;;;;;;-5.77;66.66;99428.13;5008135;28;20046;-78
2022/01/19 03:56:28;;;;;;;4.72;2.30;;;;;;;-6.01;64.89;99432.69;5024429;28;20042;-78
2022/01/19 03:58:54;;;;;;;6.88;2.22;;;;;;;-6.20;65.66;99430.75;5040826;28;20042;-77
2022/01/19 04:01:20;;;;;;;4.18;2.38;;;;;;;-6.20;66.25;99433.28;5049254;28;20386;-77
2022/01/19 04:07:08;;;;;;;5.45;2.67;;;;;;;-6.44;66.19;99429.31;5047246;28;20508;-77
2022/01/19 04:09:01;;;;;;;6.55;3.60;;;;;;;-6.67;66.36;99433.88;4997460;28;20054;-78
2022/01/19 04:11:26;;;;;;;4.22;2.75;;;;;;;-6.79;67.19;99428.06;5011855;28;20403;-81
2022/01/19 04:16:23;;;;;;;7.82;3.22;;;;;;;-6.97;69.13;99442.09;5011956;28;20556;-79
2022/01/19 04:18:53;;;;;;;4.25;2.47;;;;;;;-6.92;69.26;99436.59;5011086;28;20077;-79
2022/01/19 04:21:19;;;;;;;5.53;2.75;;;;;;;-6.94;68.44;99434.72;5011101;28;20049;-79
2022/01/19 04:23:45;;;;;;;5.53;3.08;;;;;;;-7.02;67.68;99438.41;5011507;28;20034;-79
2022/01/19 04:26:10;;;;;;;10.10;3.75;;;;;;;-7.00;68.35;99435.22;5011366;28;20600;-79
2022/01/19 04:28:40;;;;;;;7.55;3.47;;;;;;;-7.14;69.62;99433.50;5012857;28;20060;-79
2022/01/19 04:31:06;;;;;;;8.10;3.28;;;;;;;-7.23;68.58;99438.00;4995263;28;20559;-79
2022/01/19 04:33:32;;;;;;;5.57;2.80;;;;;;;-7.05;68.50;99438.25;5011368;28;20038;-79
2022/01/19 04:36:19;;;;;;;4.65;2.70;;;;;;;-7.11;69.14;99425.25;5028088;28;20132;-80
2022/01/19 05:07:53;;;;;;;8.77;5.00;;;;;;;-7.65;70.75;99406.81;5014346;28;20123;-79
2022/01/19 05:15:48;;;;;;;9.50;5.03;;;;;;;-7.68;70.23;99422.59;5013987;28;20541;-79
2022/01/19 05:18:18;;;;;;;7.97;6.00;;;;;;;-7.73;71.17;99408.84;5014180;28;20022;-81
2022/01/19 05:20:45;;;;;;;8.88;5.38;;;;;;;-7.56;71.50;99406.50;4981909;28;20048;-77
2022/01/19 05:23:19;;;;;;;8.15;5.55;;;;;;;-7.65;70.43;99405.91;4999207;28;20036;-80
2022/01/19 05:25:45;;;;;;;7.93;4.60;;;;;;;-7.72;71.63;99409.72;4981426;28;20046;-78
2022/01/19 05:28:18;;;;;;;10.38;4.93;;;;;;;-7.49;71.23;99417.06;4983776;28;20436;-80
2022/01/19 05:30:44;;;;;;;10.55;4.80;;;;;;;-7.58;70.82;99403.03;4997463;28;20038;-79
2022/01/19 05:33:10;;;;;;;8.23;5.18;;;;;;;-7.60;70.27;99394.50;4997923;28;20049;-79
2022/01/19 05:35:35;;;;;;;9.45;5.40;;;;;;;-7.61;70.26;99402.81;5013919;28;20137;-79
2022/01/19 05:38:20;;;;;;;8.13;5.07;;;;;;;-7.75;70.92;99415.41;5014080;28;20071;-79
2022/01/19 05:40:52;;;;;;;7.97;4.43;;;;;;;-7.74;71.27;99412.13;4998808;28;20041;-79
2022/01/19 05:43:18;;;;;;;7.40;5.18;;;;;;;-7.95;70.95;99400.69;5013788;28;20420;-82
2022/01/19 05:45:44;;;;;;;6.82;3.65;;;;;;;-7.84;71.52;99394.69;4965589;28;20061;-80
2022/01/19 05:48:14;;;;;;;8.40;4.18;;;;;;;-7.95;71.12;99391.47;4998029;28;20054;-79
2022/01/19 05:50:43;;;;;;;6.85;3.42;;;;;;;-7.77;71.96;99414.44;4982538;28;20065;-78
2022/01/19 05:53:13;;;;;;;6.07;3.53;;;;;;;-7.54;71.43;99405.84;4982308;28;20049;-79
2022/01/19 05:55:39;;;;;;;9.32;4.18;;;;;;;-7.59;70.03;99402.16;4997907;28;20041;-79
2022/01/19 05:58:06;;;;;;;6.63;3.95;;;;;;;-7.52;70.70;99414.34;4998239;28;20037;-78
2022/01/19 06:00:31;;;;;;;7.47;3.33;;;;;;;-7.38;70.70;99412.69;4998236;28;20401;-79
2022/01/19 06:02:57;;;;;;;7.20;4.10;;;;;;;-7.66;69.96;99415.13;4998335;28;20061;-79
2022/01/19 06:05:35;;;;;;;8.55;4.82;;;;;;;-7.72;70.71;99430.72;4999299;28;20045;-78
2022/01/19 06:10:57;;;;;;;12.52;5.70;;;;;;;-7.85;71.29;99407.19;4998989;28;20042;-79
2022/01/19 06:13:24;;;;;;;8.23;4.07;;;;;;;-8.02;71.88;99431.25;5018383;28;20080;-81
2022/01/19 06:15:50;;;;;;;10.38;4.32;;;;;;;-8.09;72.33;99419.94;5015769;28;20045;-79
2022/01/19 06:18:16;;;;;;;7.93;4.43;;;;;;;-8.05;72.37;99428.56;4998320;28;20077;-79
2022/01/19 06:20:43;;;;;;;10.00;4.95;;;;;;;-8.21;73.26;99412.44;4999424;28;20497;-78
2022/01/19 06:23:09;;;;;;;7.70;3.85;;;;;;;-8.10;72.54;99409.78;5017419;28;20042;-77
2022/01/19 06:25:41;;;;;;;6.93;4.10;;;;;;;-8.02;72.59;99411.13;4987480;28;20051;-78
2022/01/19 06:28:07;;;;;;;9.02;4.80;;;;;;;-8.11;72.36;99420.59;5017124;28;20033;-78
2022/01/19 06:30:33;;;;;;;8.27;4.68;;;;;;;-8.13;73.23;99425.53;4998337;28;20481;-79
2022/01/19 06:32:59;;;;;;;8.35;4.50;;;;;;;-8.14;72.65;99435.50;4998971;28;20081;-79
2022/01/19 06:35:27;;;;;;;6.30;3.85;;;;;;;-8.24;73.06;99441.59;5015884;28;20057;-77
2022/01/19 06:38:25;;;;;;;7.82;4.47;;;;;;;-8.43;72.86;99436.97;5015338;28;20112;-79
2022/01/19 06:41:05;;;;;;;10.60;4.07;;;;;;;-8.43;72.90;99436.97;4999478;28;20057;-79
2022/01/19 06:43:34;;;;;;;8.43;4.28;;;;;;;-8.38;73.50;99428.13;4997107;28;20038;-81
2022/01/19 06:46:00;;;;;;;;;;;;;;;-8.24;72.55;99444.97;4981424;28;20049;-79
2022/01/19 06:48:27;;;;;;;8.13;4.38;;;;;;;-8.41;73.00;99425.41;5012595;28;20059;-80
2022/01/19 06:50:53;;;;;;;6.25;3.88;;;;;;;-8.57;73.01;99441.09;4996615;28;20034;-80
2022/01/19 06:53:26;;;;;;;10.07;4.93;;;;;;;-8.66;74.15;99445.50;5028319;28;20592;-80
2022/01/19 06:56:06;;;;;;;8.23;4.22;;;;;;;-8.83;73.87;99426.78;5027790;28;20413;-79
2022/01/19 06:58:31;;;;;;;11.98;3.92;;;;;;;-8.55;73.88;99432.03;5013409;28;20038;-79
2022/01/19 07:01:33;;;;;;;7.63;4.60;;;;;;;-8.55;74.00;99421.09;5012739;28;20037;-78
2022/01/19 07:04:39;;;;;;;9.65;4.63;;;;;;;-8.41;73.63;99432.06;5002071;28;20104;-79
2022/01/19 07:07:05;;;;;;;8.95;4.40;;;;;;;-8.39;73.22;99433.03;4997182;28;20045;-79
2022/01/19 07:09:46;;;;;;;9.00;4.10;;;;;;;-8.40;72.71;99414.56;4999697;28;20579;-80
2022/01/19 07:12:12;;;;;;;8.55;4.32;;;;;;;-8.49;73.15;99417.34;4998129;28;20043;-81
2022/01/19 07:14:37;;;;;;;;;;;;;;;-8.42;73.52;99422.78;4980955;28;20489;-81
2022/01/19 07:17:03;;;;;;;7.80;3.40;;;;;;;-8.43;73.01;99408.44;5045973;28;19917;-80
2022/01/19 07:19:29;;;;;;;8.68;4.30;;;;;;;-8.38;72.92;99428.13;4996487;28;20037;-79
2022/01/19 07:21:55;;;;;;;;;;;;;;;-8.24;73.28;99427.34;5030182;28;20038;-80
2022/01/19 07:24:21;;;;;;;8.70;4.05;;;;;;;-8.24;73.03;99416.44;5046518;28;19988;-78
2022/01/19 07:26:46;;;;;;;;;;;;;;;-8.16;73.10;99439.56;5014145;28;20132;-79
2022/01/19 07:29:16;;;;;;;7.07;3.67;;;;;;;-8.23;72.36;99424.06;5061885;28;20395;-79
2022/01/19 07:31:48;;;;;;;7.22;4.03;;;;;;;-8.50;72.70;99438.22;4998719;28;20062;-81
2022/01/19 07:34:14;;;;;;;;;;;;;;;-8.52;74.63;99443.91;5013461;28;20045;-79
2022/01/19 07:36:42;;;;;;;7.40;3.28;;;;;;;-8.73;74.26;99430.78;5045668;28;19982;-79
2022/01/19 07:39:09;;;;;;;7.38;4.00;;;;;;;-8.67;74.92;99435.34;4997738;28;20046;-79
2022/01/19 07:41:38;;;;;;;6.55;3.83;;;;;;;-8.80;74.74;99428.63;5000531;28;20036;-80
2022/01/19 07:44:22;;;;;;;9.25;4.35;;;;;;;-8.81;75.95;99432.78;5018370;28;20061;-79
2022/01/19 07:47:14;;;;;;;8.60;4.00;;;;;;;-8.59;75.36;99439.25;5014224;28;20046;-80
2022/01/19 07:49:58;;;;;;;7.70;3.42;;;;;;;-8.69;74.38;99415.16;5016533;28;20056;-81
2022/01/19 07:52:43;;;;;;;9.77;3.75;;;;;;;-8.46;74.89;99426.75;5016348;28;20053;-79
2022/01/19 07:55:20;;;;;;;8.50;3.42;;;;;;;-8.57;75.18;99410.03;5016185;28;20050;-80
2022/01/19 07:57:51;;;;;;;7.68;3.60;;;;;;;-8.38;75.34;99402.97;5000430;28;20038;-79
2022/01/19 08:00:33;;;;;;;4.95;2.50;;;;;;;-8.08;74.75;99390.59;5034387;28;20042;-80
2022/01/19 08:03:19;;;;;;;7.50;3.60;;;;;;;-8.20;72.83;99400.72;5002301;28;20077;-79
2022/01/19 08:06:11;;;;;;;11.25;4.43;;;;;;;-8.60;74.37;99399.81;5003800;28;20045;-78
2022/01/19 08:08:37;;;;;;;6.88;3.55;;;;;;;-9.26;75.57;99411.25;5031757;28;20129;-79
2022/01/19 08:11:03;;;;;;;;;;;;;;;-8.96;76.42;99410.00;4999156;28;20156;-79
2022/01/19 08:13:32;;;;;;;12.48;5.65;;;;;;;-8.91;77.12;99415.31;5032411;28;19917;-79
2022/01/19 08:15:59;;;;;;;8.27;3.75;;;;;;;-8.93;76.42;99406.81;4999649;28;20038;-79
2022/01/19 08:18:26;;;;;;;6.75;3.83;;;;;;;-9.28;76.46;99400.25;4984214;28;20132;-78
2022/01/19 08:20:51;;;;;;;;;;;;;;;-9.11;77.32;99398.03;4983598;28;20069;-79
2022/01/19 08:23:22;;;;;;;5.95;3.33;;;;;;;-8.93;77.52;99388.31;5048532;28;19917;-79
2022/01/19 08:25:59;;;;;;;10.40;4.15;;;;;;;-8.92;76.70;99405.19;5015309;28;20042;-79
2022/01/19 08:28:24;;;;;;;;;;;;;;;-8.94;76.36;99396.66;4999320;28;20393;-80
2022/01/19 08:30:53;;;;;;;8.05;4.03;;;;;;;-8.62;76.82;99393.78;5015880;28;19913;-81
2022/01/19 08:33:39;;;;;;;8.73;4.63;;;;;;;-8.66;76.28;99370.06;5015489;28;20155;-79
2022/01/19 08:36:05;;;;;;;;;;;;;;;-8.61;75.52;99382.94;4983359;28;20042;-80
2022/01/19 08:38:33;;;;;;;9.48;4.57;;;;;;;-8.60;75.21;99374.66;5048383;28;19973;-79
2022/01/19 08:41:13;;;;;;;11.68;4.60;;;;;;;-8.44;75.78;99369.84;5001603;28;20046;-80
2022/01/19 08:43:41;;;;;;;13.75;5.45;;;;;;;-8.35;74.31;99377.09;5000217;28;20037;-79
2022/01/19 08:46:07;;;;;;;8.90;4.68;;;;;;;-8.38;74.42;99366.84;5031729;28;20053;-79
2022/01/19 08:48:53;;;;;;;7.50;4.45;;;;;;;-8.42;75.03;99337.28;5002133;28;20041;-80
2022/01/19 08:51:39;;;;;;;11.98;5.25;;;;;;;-8.31;74.32;99338.78;4995391;28;20104;-79
2022/01/19 08:54:16;;;;;;;13.88;5.95;;;;;;;-8.46;74.64;99343.75;5000897;28;20546;-84
2022/01/19 08:56:54;;;;;;;9.98;4.80;;;;;;;-8.41;74.28;99344.91;5001469;28;20071;-83
2022/01/19 08:59:20;;;;;;;;;;;;;;;-8.44;74.84;99357.28;5016738;28;20548;-79
2022/01/19 09:01:46;;;;;;;11.70;5.90;;;;;;;-8.54;74.98;99338.19;5016134;28;20001;-80
2022/01/19 09:04:11;;;;;;;9.30;4.88;;;;;;;-8.43;74.89;99336.38;5032191;28;20068;-81
2022/01/19 09:06:37;;;;;;;;;;;;;;;-8.27;74.11;99351.66;4999423;28;20096;-80
2022/01/19 09:09:03;;;;;;;9.98;5.25;;;;;;;-8.33;73.38;99350.41;5032277;28;19971;-80
2022/01/19 09:11:29;;;;;;;10.13;5.72;;;;;;;-8.33;73.88;99332.81;5016991;28;20057;-83
2022/01/19 09:13:54;;;;;;;;;;;;;;;-8.13;74.88;99352.56;5000651;28;20099;-79
2022/01/19 09:16:20;;;;;;;10.77;5.22;;;;;;;-8.12;74.49;99338.31;5048482;28;20375;-80
2022/01/19 09:18:46;;;;;;;10.50;4.88;;;;;;;-8.01;74.22;99344.94;4999769;28;20045;-78
2022/01/19 09:21:11;;;;;;;9.70;4.80;;;;;;;-7.94;73.08;99324.38;5015365;28;20034;-79
2022/01/19 09:23:37;;;;;;;9.63;4.95;;;;;;;-7.68;73.32;99331.94;5015076;28;20038;-80
2022/01/19 09:26:03;;;;;;;12.95;5.82;;;;;;;-7.89;70.96;99325.53;5031073;28;20045;-80
2022/01/19 09:28:29;;;;;;;9.27;5.10;;;;;;;-7.89;72.33;99345.69;5014568;28;20064;-80
2022/01/19 09:30:59;;;;;;;11.88;4.82;;;;;;;-8.07;72.04;99336.97;5047430;28;20501;-79
2022/01/19 09:33:28;;;;;;;12.93;4.88;;;;;;;-8.05;71.76;99323.72;4983158;28;20466;-79
2022/01/19 09:38:25;;;;;;;8.63;4.35;;;;;;;-7.83;72.17;99320.91;5014196;28;20046;-79
2022/01/19 09:40:51;;;;;;;11.55;4.00;;;;;;;-7.96;71.21;99328.47;4997864;28;20116;-80
2022/01/19 09:43:23;;;;;;;;;;;;;;;-7.68;71.93;99349.56;5014781;28;20073;-81
2022/01/19 09:45:53;;;;;;;7.10;4.20;;;;;;;-7.80;71.81;99340.34;5045800;28;19917;-80
2022/01/19 09:48:19;;;;;;;10.30;4.57;;;;;;;-7.60;71.01;99339.09;5014076;28;20069;-81
2022/01/19 09:50:45;;;;;;;7.53;4.32;;;;;;;-7.37;71.64;99348.06;4982663;28;20077;-82
2022/01/19 09:53:11;;;;;;;7.93;4.00;;;;;;;-7.26;71.55;99342.88;4997512;28;20041;-79
2022/01/19 09:55:41;;;;;;;9.23;4.32;;;;;;;-7.47;71.01;99324.84;5014209;28;20064;-79
2022/01/19 09:58:08;;;;;;;10.30;4.10;;;;;;;-7.14;71.26;99334.34;4997753;28;20069;-79
2022/01/19 10:00:33;;;;;;;8.02;4.32;;;;;;;-7.11;69.45;99324.41;4998063;28;20485;-80
2022/01/19 10:03:23;;;;;;;8.05;4.35;;;;;;;-6.87;69.33;99347.69;5013792;28;20054;-80
2022/01/19 10:05:54;;;;;;;7.03;4.30;;;;;;;-6.76;68.36;99351.75;5025572;28;20053;-79
2022/01/19 10:08:35;;;;;;;8.00;4.03;;;;;;;-6.72;68.61;99349.50;4997133;28;20038;-80
2022/01/19 10:17:06;;;;;;;7.00;3.75;;;;;;;-6.67;67.47;99332.97;5014161;28;20057;-81
2022/01/19 10:19:38;;;;;;;7.25;3.70;;;;;;;-6.41;67.82;99346.22;4980996;28;20531;-81
2022/01/19 10:22:17;;;;;;;8.25;4.10;;;;;;;-6.25;67.73;99335.34;5014965;28;20045;-79
2022/01/19 10:25:02;;;;;;;9.13;4.38;;;;;;;-6.15;66.85;99342.66;5013699;28;20488;-79
2022/01/19 10:27:32;;;;;;;7.03;3.88;;;;;;;-6.22;66.28;99343.09;5015306;28;20405;-78
2022/01/19 10:30:04;;;;;;;7.78;4.07;;;;;;;-6.18;66.43;99343.38;4997200;28;20183;-79
2022/01/19 10:32:37;;;;;;;7.43;4.82;;;;;;;-6.23;66.42;99327.09;5012977;28;20050;-78
2022/01/19 10:35:26;;;;;;;9.13;4.72;;;;;;;-6.28;66.93;99338.56;4996721;28;20030;-78
2022/01/19 10:38:13;;;;;;;7.50;4.28;;;;;;;-6.50;67.14;99330.56;5012675;28;20046;-79
2022/01/19 10:40:41;;;;;;;7.35;4.35;;;;;;;-6.64;67.87;99322.19;4997116;28;20128;-78
2022/01/19 10:43:39;;;;;;;7.85;4.35;;;;;;;-6.66;67.76;99327.13;4980976;28;20022;-80
2022/01/19 10:46:26;;;;;;;8.10;4.03;;;;;;;-6.60;67.68;99323.22;5038116;28;20405;-80
2022/01/19 10:49:05;;;;;;;9.73;4.68;;;;;;;-6.88;68.49;99333.34;5014382;28;20088;-79
2022/01/19 10:51:37;;;;;;;11.48;3.85;;;;;;;-6.80;68.34;99319.56;4982338;28;20052;-78
2022/01/19 10:54:21;;;;;;;7.35;3.65;;;;;;;-6.73;68.74;99327.56;5012749;28;20516;-80
2022/01/19 10:56:54;;;;;;;8.85;4.30;;;;;;;-6.55;69.20;99330.31;5012884;28;20077;-79
2022/01/19 10:59:25;;;;;;;7.28;3.90;;;;;;;-6.48;68.36;99326.47;5012363;28;20133;-80
2022/01/19 11:01:56;;;;;;;9.07;4.07;;;;;;;-6.39;67.47;99344.66;5013298;28;20041;-80
2022/01/19 11:04:22;;;;;;;9.35;4.25;;;;;;;-6.40;67.27;99328.66;5012928;28;20501;-80
2022/01/19 11:07:02;;;;;;;9.95;4.38;;;;;;;-6.11;68.21;99331.06;5045854;28;20040;-79
2022/01/19 11:09:30;;;;;;;8.55;4.82;;;;;;;-5.60;65.54;99324.59;5013878;28;20081;-79
2022/01/19 11:11:58;;;;;;;7.20;3.70;;;;;;;-4.91;63.42;99331.63;5013150;28;20103;-81
2022/01/19 11:14:25;;;;;;;7.80;4.00;;;;;;;-4.40;61.57;99314.78;5013532;28;20041;-79
2022/01/19 11:16:51;;;;;;;7.25;4.35;;;;;;;-3.75;60.32;99336.53;4983829;28;20037;-81
2022/01/19 11:19:18;;;;;;;6.57;3.88;;;;;;;-3.44;58.51;99305.81;4999881;28;20042;-78
2022/01/19 11:22:05;;;;;;;5.78;3.58;;;;;;;-3.25;57.12;99313.50;4983737;28;20033;-80
2022/01/19 11:24:36;;;;;;;7.43;3.83;;;;;;;-3.04;56.00;99307.63;5048620;28;20080;-79
2022/01/19 11:27:02;;;;;;;5.60;3.50;;;;;;;-2.81;54.68;99296.78;5015593;28;20052;-79
2022/01/19 11:29:32;;;;;;;8.43;4.03;;;;;;;-2.64;54.32;99300.06;5032006;28;20033;-79
2022/01/19 11:31:58;;;;;;;5.47;3.47;;;;;;;-2.14;53.59;99297.06;4983486;28;20042;-81
2022/01/19 11:34:38;;;;;;;8.02;3.63;;;;;;;-1.82;52.75;99312.72;4999421;28;20037;-79
2022/01/19 11:37:04;;;;;;;6.75;3.63;;;;;;;-1.48;52.70;99298.75;5015954;28;20045;-81
2022/01/19 11:39:30;;;;;;;7.40;3.45;;;;;;;-1.08;52.57;99290.91;4999432;28;20053;-79
2022/01/19 11:42:00;;;;;;;7.65;3.63;;;;;;;-0.75;51.32;99280.19;4999217;28;20184;-79
2022/01/19 11:44:32;;;;;;;6.28;3.58;;;;;;;-0.68;48.72;99280.47;5015415;28;20160;-80
2022/01/19 11:47:18;;;;;;;5.13;2.90;;;;;;;-0.79;48.84;99261.38;5015223;28;20501;-78
2022/01/19 11:49:50;;;;;;;5.68;3.40;;;;;;;-0.49;47.45;99273.44;5016122;28;20084;-80
2022/01/19 11:52:18;;;;;;;6.18;3.30;;;;;;;-0.44;47.78;99256.63;5016267;28;20121;-81
2022/01/19 11:54:44;;;;;;;6.20;3.15;;;;;;;-0.51;46.66;99243.66;4999761;28;20049;-81
2022/01/19 11:57:11;;;;;;;6.47;3.03;;;;;;;-0.59;47.73;99252.75;4998844;28;20049;-81
2022/01/19 11:59:46;;;;;;;7.32;3.45;;;;;;;-0.97;47.43;99260.75;5016450;28;20114;-79
2022/01/19 12:02:26;;;;;;;7.57;3.20;;;;;;;-0.99;48.46;99259.84;5014774;28;20067;-79
2022/01/19 12:04:54;;;;;;;5.45;3.03;;;;;;;-1.33;48.87;99250.97;5014957;28;20041;-78
2022/01/19 12:07:56;;;;;;;7.05;3.33;;;;;;;-1.72;48.99;99238.53;5015226;28;20053;-79
2022/01/19 12:10:39;;;;;;;6.32;3.40;;;;;;;-2.30;49.30;99243.88;5002815;28;20488;-79
2022/01/19 12:16:12;;;;;;;7.07;3.17;;;;;;;-3.04;51.74;99226.41;5016526;28;20033;-78
2022/01/19 12:18:43;;;;;;;7.10;3.35;;;;;;;-3.39;52.79;99253.63;5031822;28;20493;-79
2022/01/19 12:21:11;;;;;;;7.43;3.78;;;;;;;-3.61;54.26;99251.84;5016606;28;20096;-81
2022/01/19 12:23:39;;;;;;;4.93;3.40;;;;;;;-3.80;54.15;99250.13;4998493;28;20037;-82
2022/01/19 12:26:06;;;;;;;8.20;3.85;;;;;;;-4.00;55.00;99240.72;5015069;28;20073;-80
2022/01/19 12:28:44;;;;;;;7.30;3.85;;;;;;;-4.03;55.99;99255.78;4999065;28;20068;-83
2022/01/19 12:31:25;;;;;;;6.97;3.58;;;;;;;-4.32;56.07;99245.13;5017315;28;20072;-80
2022/01/19 12:34:19;;;;;;;8.15;3.92;;;;;;;-4.56;57.28;99251.56;5019541;28;20077;-83
2022/01/19 12:37:00;;;;;;;8.70;4.00;;;;;;;-4.72;57.62;99244.84;5048520;28;20104;-79
2022/01/19 12:39:26;;;;;;;7.47;4.13;;;;;;;-4.81;57.83;99260.47;4999918;28;20106;-81
2022/01/19 12:42:00;;;;;;;7.63;3.78;;;;;;;-5.12;58.54;99263.97;5048542;28;20065;-79
2022/01/19 12:44:35;;;;;;;7.25;3.63;;;;;;;-5.13;59.29;99261.38;5000026;28;20038;-80
2022/01/19 12:47:05;;;;;;;7.03;3.90;;;;;;;-5.33;59.38;99267.91;5048502;28;20073;-81
2022/01/19 12:49:32;;;;;;;9.05;3.95;;;;;;;-5.66;60.03;99265.34;5015939;28;20116;-79
2022/01/19 12:51:57;;;;;;;;;;;;;;;-5.64;61.77;99281.44;4983001;28;20036;-80
2022/01/19 12:54:27;;;;;;;8.15;4.55;;;;;;;-5.70;61.82;99271.03;5031547;28;19918;-79
2022/01/19 12:56:55;;;;;;;7.55;3.88;;;;;;;-5.62;62.11;99258.81;5032371;28;20038;-79
2022/01/19 12:59:21;;;;;;;6.75;3.88;;;;;;;-5.66;62.04;99247.66;4998701;28;20536;-80
2022/01/19 13:01:46;;;;;;;10.15;4.35;;;;;;;-5.92;62.61;99228.63;4998230;28;20038;-78
2022/01/19 13:04:25;;;;;;;9.65;4.80;;;;;;;-6.05;62.62;99235.44;4998406;28;20100;-82
2022/01/19 13:06:54;;;;;;;7.85;3.92;;;;;;;-6.08;63.46;99233.66;4998765;28;20052;-79
2022/01/19 13:09:28;;;;;;;8.75;4.75;;;;;;;-6.26;63.83;99225.94;5014444;28;20096;-79
2022/01/19 13:11:55;;;;;;;10.82;5.38;;;;;;;-6.28;64.72;99226.63;4999351;28;20033;-82
2022/01/19 13:14:23;;;;;;;8.07;3.92;;;;;;;-6.26;64.47;99220.03;4998813;28;20033;-79
2022/01/19 13:16:49;;;;;;;8.52;4.38;;;;;;;-6.37;64.79;99218.53;4998521;28;20042;-78
2022/01/19 13:19:18;;;;;;;;;;;;;;;-6.31;65.51;99229.00;4982280;28;20378;-80
2022/01/19 13:21:45;;;;;;;10.57;5.03;;;;;;;-6.32;64.93;99222.19;5048649;28;19917;-79
2022/01/19 13:24:25;;;;;;;9.35;4.35;;;;;;;-6.50;65.14;99211.97;4998780;28;20038;-82
2022/01/19 13:26:54;;;;;;;17.52;5.07;;;;;;;-6.53;65.70;99221.88;4998584;28;20103;-83
2022/01/19 13:29:38;;;;;;;8.45;4.65;;;;;;;-6.42;66.14;99234.28;5015531;28;20060;-80
2022/01/19 13:32:12;;;;;;;8.10;4.43;;;;;;;-6.48;65.56;99223.00;4998410;28;20421;-79